Time;durP1;ratioP1;P1;durP2;ratioP2;P2;SDS_P1;SDS_P2;PMS_P1;PMS_P2;Temp;Humidity;BMP_temperature;BMP_pressure;BME280_temperature;BME280_humidity;BME280_pressure;Samples;Min_cycle;Max_cycle;Signal;HPM_P1;HPM_P2
2023/10/29 00:00:11;;;;;;;20.30;18.30;;;;;;;;;;5088274;28;20024;-60
2023/10/29 00:02:37;;;;;;;20.05;18.05;;;;;;;;;;5077070;28;20020;-58
2023/10/29 00:05:03;;;;;;;19.85;17.95;;;;;;;;;;5076029;28;20507;-58
2023/10/29 00:07:29;;;;;;;20.52;17.88;;;;;;;;;;5077103;28;20228;-60
2023/10/29 00:09:55;;;;;;;19.40;17.38;;;;;;;;;;5076711;28;20100;-59
2023/10/29 00:12:22;;;;;;;19.17;17.27;;;;;;;;;;5077345;28;20020;-59
2023/10/29 00:14:48;;;;;;;18.73;16.83;;;;;;;;;;5076784;28;20096;-59
2023/10/29 00:17:14;;;;;;;18.52;16.63;;;;;;;;;;5076223;28;20024;-61
2023/10/29 00:19:40;;;;;;;17.83;15.93;;;;;;;;;;5076949;28;20039;-58
2023/10/29 00:22:06;;;;;;;17.58;15.68;;;;;;;;;;5077350;28;20409;-60
2023/10/29 00:24:32;;;;;;;18.02;15.88;;;;;;;;;;5076487;28;20024;-60
2023/10/29 00:26:58;;;;;;;17.65;15.32;;;;;;;;;;5076250;28;20563;-60
2023/10/29 00:29:23;;;;;;;17.13;15.10;;;;;;;;;;5076274;28;20064;-58
2023/10/29 00:31:49;;;;;;;17.58;15.45;;;;;;;;;;5077211;28;20016;-60
2023/10/29 00:34:16;;;;;;;17.75;15.15;;;;;;;;;;5077147;28;20382;-59
2023/10/29 00:36:42;;;;;;;18.38;15.25;;;;;;;;;;5075167;28;20437;-60
2023/10/29 00:39:08;;;;;;;16.85;14.55;;;;;;;;;;5075728;28;20036;-60
2023/10/29 00:41:34;;;;;;;16.42;14.23;;;;;;;;;;5075101;28;20056;-59
2023/10/29 00:44:00;;;;;;;16.30;13.90;;;;;;;;;;5075271;28;20044;-58
2023/10/29 00:46:26;;;;;;;18.00;13.73;;;;;;;;;;5074915;28;20031;-60
2023/10/29 00:48:52;;;;;;;18.17;14.60;;;;;;;;;;5074351;28;20031;-58
2023/10/29 00:51:18;;;;;;;17.52;14.30;;;;;;;;;;5074920;28;20224;-55
2023/10/29 00:53:45;;;;;;;15.98;13.88;;;;;;;;;;5075196;28;20056;-58
2023/10/29 00:56:12;;;;;;;16.25;13.63;;;;;;;;;;5073291;28;20101;-59
2023/10/29 00:58:38;;;;;;;17.40;13.70;;;;;;;;;;5074424;28;20640;-57
2023/10/29 01:01:04;;;;;;;16.88;13.20;;;;;;;;;;5074574;28;20059;-58
2023/10/29 01:03:30;;;;;;;17.10;13.07;;;;;;;;;;5075018;28;20063;-59
2023/10/29 01:05:56;;;;;;;17.45;13.27;;;;;;;;;;5073987;28;20383;-60
2023/10/29 01:08:22;;;;;;;16.23;13.13;;;;;;;;;;5074775;28;20089;-60
2023/10/29 01:10:48;;;;;;;16.63;12.80;;;;;;;;;;5074662;28;20077;-59
2023/10/29 01:13:14;;;;;;;16.20;12.38;;;;;;;;;;5073343;28;20024;-56
2023/10/29 01:15:40;;;;;;;16.50;12.40;;;;;;;;;;5073500;28;20024;-56
2023/10/29 01:18:06;;;;;;;17.75;12.10;;;;;;;;;;5073561;28;20509;-58
2023/10/29 01:20:32;;;;;;;17.15;11.60;;;;;;;;;;5073202;28;20039;-60
2023/10/29 01:22:58;;;;;;;17.08;11.45;;;;;;;;;;5074021;28;20020;-59
2023/10/29 01:25:24;;;;;;;15.50;11.23;;;;;;;;;;5073836;28;20033;-58
2023/10/29 01:27:51;;;;;;;18.77;11.95;;;;;;;;;;5073227;28;20032;-56
2023/10/29 01:30:17;;;;;;;17.08;10.85;;;;;;;;;;5073966;28;20077;-59
2023/10/29 01:32:44;;;;;;;16.00;11.00;;;;;;;;;;5074755;28;20096;-60
2023/10/29 01:35:10;;;;;;;16.20;11.27;;;;;;;;;;5074755;28;20036;-59
2023/10/29 01:37:36;;;;;;;16.90;11.30;;;;;;;;;;5074434;28;20146;-60
2023/10/29 01:40:02;;;;;;;15.32;11.18;;;;;;;;;;5074725;28;20130;-59
2023/10/29 01:42:28;;;;;;;15.25;10.75;;;;;;;;;;5074128;28;20033;-60
2023/10/29 01:44:53;;;;;;;16.38;10.73;;;;;;;;;;5074651;28;20040;-59
2023/10/29 01:47:19;;;;;;;14.73;10.35;;;;;;;;;;5073405;28;20086;-60
2023/10/29 01:49:45;;;;;;;16.50;11.57;;;;;;;;;;5071859;28;20390;-60
2023/10/29 01:52:11;;;;;;;15.45;10.90;;;;;;;;;;5073532;28;20023;-61
2023/10/29 01:54:37;;;;;;;15.30;10.55;;;;;;;;;;5073918;28;20051;-60
2023/10/29 01:57:04;;;;;;;14.07;9.30;;;;;;;;;;5073786;28;20565;-59
2023/10/29 01:59:30;;;;;;;14.85;9.75;;;;;;;;;;5074438;28;20513;-61
2023/10/29 02:01:56;;;;;;;17.33;9.65;;;;;;;;;;5073803;28;20442;-57
2023/10/29 02:04:26;;;;;;;15.73;10.18;;;;;;;;;;5073469;28;20040;-62
2023/10/29 02:06:53;;;;;;;15.10;8.50;;;;;;;;;;5072801;28;20021;-60
2023/10/29 02:09:20;;;;;;;14.15;8.70;;;;;;;;;;5073210;28;20048;-61
2023/10/29 02:11:45;;;;;;;14.93;8.10;;;;;;;;;;5074317;28;20071;-61
2023/10/29 02:14:12;;;;;;;13.95;7.63;;;;;;;;;;5073842;28;20119;-60
2023/10/29 02:16:38;;;;;;;12.57;7.05;;;;;;;;;;5092404;28;20044;-61
2023/10/29 02:19:04;;;;;;;13.65;7.30;;;;;;;;;;5094568;28;20035;-60
2023/10/29 02:21:30;;;;;;;13.40;6.90;;;;;;;;;;5093526;28;20024;-59
2023/10/29 02:24:00;;;;;;;14.55;8.02;;;;;;;;;;5094960;28;20088;-61
2023/10/29 02:26:26;;;;;;;14.50;7.30;;;;;;;;;;5093349;28;20052;-60
2023/10/29 02:28:52;;;;;;;15.55;7.38;;;;;;;;;;5093759;28;20372;-60
2023/10/29 02:31:19;;;;;;;12.73;6.90;;;;;;;;;;5091382;28;20016;-61
2023/10/29 02:33:46;;;;;;;13.32;7.00;;;;;;;;;;5093016;28;20025;-62
2023/10/29 02:36:12;;;;;;;14.02;7.00;;;;;;;;;;5093535;28;20216;-61
2023/10/29 02:38:38;;;;;;;14.10;7.20;;;;;;;;;;5093631;28;20456;-61
2023/10/29 02:41:07;;;;;;;13.98;7.18;;;;;;;;;;5093066;28;20043;-60
2023/10/29 02:43:34;;;;;;;14.93;7.07;;;;;;;;;;5091984;28;20094;-60
2023/10/29 02:46:00;;;;;;;14.40;7.88;;;;;;;;;;5092555;28;20043;-60
2023/10/29 02:48:26;;;;;;;13.38;7.13;;;;;;;;;;5093152;28;20022;-61
2023/10/29 02:50:53;;;;;;;18.25;7.35;;;;;;;;;;5092726;28;20021;-59
2023/10/29 02:53:19;;;;;;;14.98;6.88;;;;;;;;;;5093159;28;20092;-61
2023/10/29 02:55:46;;;;;;;13.57;7.13;;;;;;;;;;5093062;28;20481;-59
2023/10/29 02:58:12;;;;;;;14.00;7.82;;;;;;;;;;5093220;28;20031;-58
2023/10/29 03:00:38;;;;;;;17.15;7.72;;;;;;;;;;5092204;28;20058;-61
2023/10/29 03:03:05;;;;;;;14.90;7.32;;;;;;;;;;5092374;28;20039;-59
2023/10/29 03:05:31;;;;;;;13.77;7.32;;;;;;;;;;5092405;28;20024;-61
2023/10/29 03:07:59;;;;;;;15.20;7.30;;;;;;;;;;5092254;28;20016;-61
2023/10/29 03:10:25;;;;;;;13.02;6.78;;;;;;;;;;5092265;28;20055;-59
2023/10/29 03:12:51;;;;;;;13.00;6.75;;;;;;;;;;5092526;28;20024;-59
2023/10/29 03:15:17;;;;;;;12.02;6.60;;;;;;;;;;5092743;28;20024;-58
2023/10/29 03:17:43;;;;;;;13.30;6.70;;;;;;;;;;5092198;28;20110;-58
2023/10/29 03:20:09;;;;;;;12.07;6.45;;;;;;;;;;5092720;28;20058;-58
2023/10/29 03:22:35;;;;;;;12.70;6.75;;;;;;;;;;5092204;28;20028;-60
2023/10/29 03:25:01;;;;;;;12.25;6.65;;;;;;;;;;5092324;28;20040;-58
2023/10/29 03:27:27;;;;;;;13.55;6.70;;;;;;;;;;5091832;28;20031;-59
2023/10/29 03:29:53;;;;;;;15.25;6.82;;;;;;;;;;5090810;28;20016;-60
2023/10/29 03:32:19;;;;;;;12.80;6.60;;;;;;;;;;5071966;28;20055;-61
2023/10/29 03:34:45;;;;;;;14.60;6.70;;;;;;;;;;5072455;28;20021;-59
2023/10/29 03:37:11;;;;;;;14.10;7.47;;;;;;;;;;5071686;28;20059;-59
2023/10/29 03:39:37;;;;;;;14.32;6.72;;;;;;;;;;5071587;28;20054;-59
2023/10/29 03:42:03;;;;;;;12.60;6.53;;;;;;;;;;5071747;28;20035;-58
2023/10/29 03:44:29;;;;;;;13.68;6.80;;;;;;;;;;5074597;28;20094;-58
2023/10/29 03:46:55;;;;;;;12.25;6.45;;;;;;;;;;5091094;28;20039;-59
2023/10/29 03:49:21;;;;;;;11.25;6.20;;;;;;;;;;5095214;28;20077;-57
2023/10/29 03:51:48;;;;;;;13.10;6.72;;;;;;;;;;5095650;28;20027;-58
2023/10/29 03:54:14;;;;;;;13.32;6.57;;;;;;;;;;5093656;28;20016;-58
2023/10/29 03:56:40;;;;;;;11.88;6.35;;;;;;;;;;5095458;28;20068;-57
2023/10/29 03:59:06;;;;;;;13.25;6.40;;;;;;;;;;5095618;28;20016;-58
2023/10/29 04:01:33;;;;;;;11.75;6.22;;;;;;;;;;5095559;28;20768;-58
2023/10/29 04:03:59;;;;;;;13.05;6.53;;;;;;;;;;5096046;28;20031;-61
2023/10/29 04:06:25;;;;;;;14.18;6.50;;;;;;;;;;5095957;28;20406;-59
2023/10/29 04:08:51;;;;;;;13.13;6.60;;;;;;;;;;5095556;28;20020;-59
2023/10/29 04:11:17;;;;;;;12.30;6.70;;;;;;;;;;5106204;22;20128;-53
2023/10/29 04:13:44;;;;;;;12.32;6.15;;;;;;;;;;5073034;28;20044;-51
2023/10/29 04:16:10;;;;;;;13.52;6.45;;;;;;;;;;5072782;28;20029;-56
2023/10/29 04:18:36;;;;;;;12.45;6.28;;;;;;;;;;5059502;28;20509;-53
2023/10/29 04:21:03;;;;;;;14.30;6.45;;;;;;;;;;5052607;28;20387;-56
2023/10/29 04:23:29;;;;;;;12.40;6.70;;;;;;;;;;5054123;28;20509;-53
2023/10/29 04:25:55;;;;;;;13.02;6.50;;;;;;;;;;5052065;28;20033;-52
2023/10/29 04:28:21;;;;;;;14.00;6.78;;;;;;;;;;5052144;28;20025;-52
2023/10/29 04:30:48;;;;;;;12.18;6.50;;;;;;;;;;5051650;28;20074;-51
2023/10/29 04:33:14;;;;;;;13.95;7.15;;;;;;;;;;5051417;28;20108;-52
2023/10/29 04:35:40;;;;;;;12.85;6.85;;;;;;;;;;5066727;28;20083;-52
2023/10/29 04:38:06;;;;;;;13.57;6.32;;;;;;;;;;5060511;28;20162;-59
2023/10/29 04:40:32;;;;;;;16.02;7.38;;;;;;;;;;5072392;28;20073;-54
2023/10/29 04:42:58;;;;;;;13.38;6.68;;;;;;;;;;5062438;28;20119;-53
2023/10/29 04:45:24;;;;;;;12.82;6.63;;;;;;;;;;5053321;28;20033;-53
2023/10/29 04:47:50;;;;;;;12.15;6.15;;;;;;;;;;5070977;28;20572;-55
2023/10/29 04:50:16;;;;;;;13.38;7.00;;;;;;;;;;5071661;28;20024;-50
2023/10/29 04:52:42;;;;;;;13.05;6.50;;;;;;;;;;5071805;28;20051;-51
2023/10/29 04:55:08;;;;;;;12.45;6.53;;;;;;;;;;5071015;28;20029;-52
2023/10/29 04:57:35;;;;;;;12.95;6.70;;;;;;;;;;5070807;28;20067;-50
2023/10/29 05:00:01;;;;;;;12.80;6.60;;;;;;;;;;5071858;28;20099;-54
2023/10/29 05:02:27;;;;;;;12.15;6.60;;;;;;;;;;5071807;28;20081;-49
2023/10/29 05:04:53;;;;;;;12.63;6.50;;;;;;;;;;5072061;28;20029;-52
2023/10/29 05:07:19;;;;;;;11.98;6.30;;;;;;;;;;5071975;28;20024;-52
2023/10/29 05:09:46;;;;;;;11.52;6.40;;;;;;;;;;5070716;28;20456;-50
2023/10/29 05:12:12;;;;;;;13.38;6.60;;;;;;;;;;5071767;28;20123;-54
2023/10/29 05:14:38;;;;;;;12.73;6.75;;;;;;;;;;5071812;28;20120;-52
2023/10/29 05:17:04;;;;;;;12.45;6.55;;;;;;;;;;5071650;28;20051;-55
2023/10/29 05:19:30;;;;;;;13.00;6.60;;;;;;;;;;5071462;28;20044;-52
2023/10/29 05:21:56;;;;;;;13.23;6.70;;;;;;;;;;5071706;28;20046;-50
2023/10/29 05:24:22;;;;;;;12.85;6.43;;;;;;;;;;5071525;28;20029;-53
2023/10/29 05:26:48;;;;;;;13.27;6.45;;;;;;;;;;5071497;28;20164;-53
2023/10/29 05:29:14;;;;;;;14.07;6.70;;;;;;;;;;5071138;28;20020;-53
2023/10/29 05:31:40;;;;;;;12.40;6.40;;;;;;;;;;5071328;28;20016;-53
2023/10/29 05:34:07;;;;;;;11.88;6.43;;;;;;;;;;5071257;28;20020;-55
2023/10/29 05:36:33;;;;;;;13.45;6.50;;;;;;;;;;5071645;28;20494;-51
2023/10/29 05:38:59;;;;;;;12.43;6.50;;;;;;;;;;5071154;28;20060;-55
2023/10/29 05:41:25;;;;;;;13.10;6.30;;;;;;;;;;5070807;28;20040;-57
2023/10/29 05:43:51;;;;;;;12.18;6.47;;;;;;;;;;5071224;28;20024;-52
2023/10/29 05:46:18;;;;;;;13.60;6.80;;;;;;;;;;5071141;28;20044;-54
2023/10/29 05:48:44;;;;;;;11.50;6.43;;;;;;;;;;5071097;28;20157;-51
2023/10/29 05:51:12;;;;;;;14.43;6.70;;;;;;;;;;5070733;28;20025;-53
2023/10/29 05:53:38;;;;;;;14.45;7.40;;;;;;;;;;5071080;28;20017;-51
2023/10/29 05:56:05;;;;;;;12.63;6.38;;;;;;;;;;5071015;28;20135;-55
2023/10/29 05:58:31;;;;;;;12.73;6.60;;;;;;;;;;5071057;28;20047;-49
2023/10/29 06:00:57;;;;;;;12.75;6.90;;;;;;;;;;5069443;28;20024;-49
2023/10/29 06:03:23;;;;;;;13.95;6.57;;;;;;;;;;5070901;28;20036;-51
2023/10/29 06:05:51;;;;;;;13.55;6.70;;;;;;;;;;5070649;28;20024;-55
2023/10/29 06:08:17;;;;;;;14.50;6.32;;;;;;;;;;5071055;28;20059;-52
2023/10/29 06:10:43;;;;;;;12.70;6.50;;;;;;;;;;5070227;28;20044;-55
2023/10/29 06:13:09;;;;;;;12.38;6.43;;;;;;;;;;5070665;28;20028;-55
2023/10/29 06:15:35;;;;;;;12.38;6.20;;;;;;;;;;5069691;28;20024;-53
2023/10/29 06:18:04;;;;;;;14.25;6.53;;;;;;;;;;5062084;28;20035;-53
2023/10/29 06:20:30;;;;;;;11.45;6.28;;;;;;;;;;5049460;28;20025;-51
2023/10/29 06:22:55;;;;;;;11.52;6.30;;;;;;;;;;5049616;28;20032;-51
2023/10/29 06:25:21;;;;;;;14.18;6.80;;;;;;;;;;5047657;28;20025;-53
2023/10/29 06:27:47;;;;;;;15.93;6.68;;;;;;;;;;5048857;28;20021;-53
2023/10/29 06:30:14;;;;;;;11.98;6.40;;;;;;;;;;5047718;28;20498;-54
2023/10/29 06:32:40;;;;;;;12.38;6.60;;;;;;;;;;5047764;28;20029;-52
2023/10/29 06:35:06;;;;;;;12.50;6.60;;;;;;;;;;5047690;28;20029;-52
2023/10/29 06:37:32;;;;;;;12.60;6.28;;;;;;;;;;5049395;28;20021;-55
2023/10/29 06:39:58;;;;;;;13.68;6.53;;;;;;;;;;5050147;28;20064;-55
2023/10/29 06:42:24;;;;;;;14.80;6.40;;;;;;;;;;5050076;28;20053;-57
2023/10/29 06:44:50;;;;;;;15.27;6.90;;;;;;;;;;5050120;28;20028;-55
2023/10/29 06:47:16;;;;;;;12.55;6.30;;;;;;;;;;5050315;28;20075;-50
2023/10/29 06:49:43;;;;;;;12.77;6.60;;;;;;;;;;5050032;28;20044;-56
2023/10/29 06:52:09;;;;;;;12.02;6.32;;;;;;;;;;5050395;28;20403;-55
2023/10/29 06:54:35;;;;;;;13.32;6.40;;;;;;;;;;5050370;28;20082;-55
2023/10/29 06:57:01;;;;;;;14.10;6.50;;;;;;;;;;5050658;28;20032;-57
2023/10/29 06:59:28;;;;;;;12.73;6.45;;;;;;;;;;5050035;28;20025;-54
2023/10/29 07:01:57;;;;;;;11.90;6.40;;;;;;;;;;5050199;28;20025;-54
2023/10/29 07:04:23;;;;;;;13.15;6.70;;;;;;;;;;5048889;28;20026;-50
2023/10/29 07:06:49;;;;;;;14.45;6.53;;;;;;;;;;5050362;28;20135;-54
2023/10/29 07:09:16;;;;;;;14.93;7.35;;;;;;;;;;5063784;28;20469;-56
2023/10/29 07:11:43;;;;;;;14.20;7.55;;;;;;;;;;5061576;28;20483;-56
2023/10/29 07:14:09;;;;;;;13.35;7.00;;;;;;;;;;5048836;28;20120;-53
2023/10/29 07:16:35;;;;;;;13.80;7.00;;;;;;;;;;5062691;28;20028;-56
2023/10/29 07:19:01;;;;;;;14.07;7.10;;;;;;;;;;5072568;28;20659;-53
2023/10/29 07:21:27;;;;;;;14.70;7.05;;;;;;;;;;5073576;28;20024;-55
2023/10/29 07:23:54;;;;;;;14.45;7.10;;;;;;;;;;5070830;28;20036;-54
2023/10/29 07:26:20;;;;;;;13.00;6.90;;;;;;;;;;5053560;28;20041;-54
2023/10/29 07:28:46;;;;;;;13.48;7.10;;;;;;;;;;5053459;28;20578;-55
2023/10/29 07:31:12;;;;;;;14.90;7.35;;;;;;;;;;5053060;28;20104;-53
2023/10/29 07:33:38;;;;;;;14.30;7.40;;;;;;;;;;5053285;28;20160;-52
2023/10/29 07:36:04;;;;;;;13.50;7.20;;;;;;;;;;5053576;28;20124;-53
2023/10/29 07:38:30;;;;;;;14.52;7.60;;;;;;;;;;5053530;28;20032;-53
2023/10/29 07:40:56;;;;;;;15.15;8.13;;;;;;;;;;5055685;28;20394;-56
2023/10/29 07:43:22;;;;;;;14.23;7.00;;;;;;;;;;5073516;28;20021;-51
2023/10/29 07:45:51;;;;;;;13.85;7.25;;;;;;;;;;5073151;28;20557;-57
2023/10/29 07:48:18;;;;;;;14.15;7.55;;;;;;;;;;5073506;28;20426;-56
2023/10/29 07:50:50;;;;;;;14.98;7.82;;;;;;;;;;5073177;28;20074;-53
2023/10/29 07:53:16;;;;;;;13.45;7.10;;;;;;;;;;5073262;28;20024;-53
2023/10/29 07:55:42;;;;;;;15.32;8.20;;;;;;;;;;5073010;28;20536;-53
2023/10/29 07:58:08;;;;;;;13.52;7.22;;;;;;;;;;5073148;28;20090;-52
2023/10/29 08:00:35;;;;;;;13.93;7.15;;;;;;;;;;5072811;28;20016;-56
2023/10/29 08:03:01;;;;;;;13.60;6.80;;;;;;;;;;5072909;28;20055;-54
2023/10/29 08:05:27;;;;;;;13.02;7.10;;;;;;;;;;5072987;28;20082;-51
2023/10/29 08:07:54;;;;;;;14.23;7.07;;;;;;;;;;5066876;28;20087;-52
2023/10/29 08:10:20;;;;;;;14.82;7.13;;;;;;;;;;5054718;28;20056;-54
2023/10/29 08:12:46;;;;;;;14.75;7.18;;;;;;;;;;5064420;28;20032;-53
2023/10/29 08:15:12;;;;;;;14.32;7.82;;;;;;;;;;5071422;28;20021;-56
2023/10/29 08:17:39;;;;;;;13.63;7.47;;;;;;;;;;5055882;28;20032;-51
2023/10/29 08:20:06;;;;;;;14.95;7.65;;;;;;;;;;5052716;28;20082;-53
2023/10/29 08:22:32;;;;;;;14.18;7.25;;;;;;;;;;5052569;28;20025;-55
2023/10/29 08:24:59;;;;;;;14.07;7.90;;;;;;;;;;5063791;28;20033;-55
2023/10/29 08:27:25;;;;;;;16.98;7.75;;;;;;;;;;5058002;28;20051;-53
2023/10/29 08:29:51;;;;;;;14.75;7.60;;;;;;;;;;5050833;28;20021;-54
2023/10/29 08:32:17;;;;;;;15.43;7.57;;;;;;;;;;5052452;28;20068;-54
2023/10/29 08:34:43;;;;;;;16.23;8.35;;;;;;;;;;5051272;28;20480;-57
2023/10/29 08:37:12;;;;;;;15.55;7.97;;;;;;;;;;5052116;28;20106;-53
2023/10/29 08:39:38;;;;;;;16.67;7.82;;;;;;;;;;5052057;28;20076;-53
2023/10/29 08:42:04;;;;;;;16.42;7.88;;;;;;;;;;5058509;28;20017;-54
2023/10/29 08:44:31;;;;;;;14.20;8.02;;;;;;;;;;5060695;28;20607;-51
2023/10/29 08:46:57;;;;;;;17.35;8.00;;;;;;;;;;5061722;28;20051;-52
2023/10/29 08:49:23;;;;;;;16.08;7.50;;;;;;;;;;5072146;28;20024;-53
2023/10/29 08:51:50;;;;;;;16.70;7.82;;;;;;;;;;5070599;28;20032;-47
2023/10/29 08:54:16;;;;;;;20.63;8.13;;;;;;;;;;5072016;28;20024;-50
2023/10/29 08:56:42;;;;;;;14.13;7.50;;;;;;;;;;5071940;28;20033;-52
2023/10/29 08:59:09;;;;;;;15.80;7.60;;;;;;;;;;5070615;28;20504;-54
2023/10/29 09:01:35;;;;;;;15.23;8.23;;;;;;;;;;5071397;28;20478;-50
2023/10/29 09:04:03;;;;;;;14.52;7.72;;;;;;;;;;5071782;28;20025;-50
2023/10/29 09:06:29;;;;;;;15.10;7.75;;;;;;;;;;5071732;28;20082;-55
2023/10/29 09:08:55;;;;;;;18.55;8.35;;;;;;;;;;5071405;28;20029;-52
2023/10/29 09:11:22;;;;;;;16.38;7.70;;;;;;;;;;5069796;28;20406;-55
2023/10/29 09:13:48;;;;;;;16.88;8.15;;;;;;;;;;5071479;28;20131;-55
2023/10/29 09:16:14;;;;;;;16.05;7.60;;;;;;;;;;5070206;28;20575;-53
2023/10/29 09:18:41;;;;;;;15.82;8.00;;;;;;;;;;5071351;28;20055;-56
2023/10/29 09:21:07;;;;;;;17.98;7.70;;;;;;;;;;5071020;28;20031;-50
2023/10/29 09:23:33;;;;;;;13.45;7.30;;;;;;;;;;5071801;28;20039;-53
2023/10/29 09:25:59;;;;;;;14.13;7.50;;;;;;;;;;5065627;28;20020;-48
2023/10/29 09:28:26;;;;;;;14.55;7.60;;;;;;;;;;5061242;28;20025;-56
2023/10/29 09:30:52;;;;;;;14.20;7.63;;;;;;;;;;5059719;28;20024;-52
2023/10/29 09:33:18;;;;;;;16.13;8.20;;;;;;;;;;5065233;28;20016;-50
2023/10/29 09:35:44;;;;;;;17.15;7.70;;;;;;;;;;5070912;28;20035;-48
2023/10/29 09:38:10;;;;;;;15.20;7.30;;;;;;;;;;5070409;28;20021;-52
2023/10/29 09:40:36;;;;;;;16.08;7.43;;;;;;;;;;5069715;28;20197;-50
2023/10/29 09:43:09;;;;;;;13.75;7.60;;;;;;;;;;5070956;28;20115;-54
2023/10/29 09:45:39;;;;;;;17.38;8.15;;;;;;;;;;5069602;28;20031;-52
2023/10/29 09:48:08;;;;;;;14.80;8.02;;;;;;;;;;5070559;28;20025;-51
2023/10/29 09:50:34;;;;;;;14.45;8.05;;;;;;;;;;5070397;28;20534;-54
2023/10/29 09:53:02;;;;;;;15.23;7.88;;;;;;;;;;5070598;28;20162;-54
2023/10/29 09:55:30;;;;;;;14.43;8.60;;;;;;;;;;5069459;28;20048;-51
2023/10/29 09:57:56;;;;;;;13.98;8.30;;;;;;;;;;5070689;28;20435;-50
2023/10/29 10:00:21;;;;;;;15.20;8.43;;;;;;;;;;5070605;28;20034;-51
2023/10/29 10:02:50;;;;;;;15.52;8.80;;;;;;;;;;5070454;28;20390;-49
2023/10/29 10:05:19;;;;;;;13.60;8.00;;;;;;;;;;5070572;28;20028;-51
2023/10/29 10:07:45;;;;;;;14.30;7.97;;;;;;;;;;5070374;28;20020;-50
2023/10/29 10:10:11;;;;;;;14.85;8.55;;;;;;;;;;5070135;28;20031;-47
2023/10/29 10:12:45;;;;;;;13.65;7.35;;;;;;;;;;5095288;22;20044;-53
2023/10/29 10:15:11;;;;;;;14.95;7.57;;;;;;;;;;5089076;28;20032;-53
2023/10/29 10:17:37;;;;;;;15.45;7.43;;;;;;;;;;5089030;28;20031;-54
2023/10/29 10:20:07;;;;;;;14.50;7.35;;;;;;;;;;5088732;28;20393;-54
2023/10/29 10:22:36;;;;;;;14.13;7.57;;;;;;;;;;5087707;28;20501;-52
2023/10/29 10:25:03;;;;;;;15.40;7.57;;;;;;;;;;5089131;28;20025;-51
2023/10/29 10:27:29;;;;;;;13.27;7.57;;;;;;;;;;5087763;28;20027;-54
2023/10/29 10:29:55;;;;;;;13.68;7.40;;;;;;;;;;5088751;28;20028;-55
2023/10/29 10:32:24;;;;;;;14.38;7.80;;;;;;;;;;5087592;28;20023;-55
2023/10/29 10:34:51;;;;;;;15.35;8.00;;;;;;;;;;5089254;28;20533;-55
2023/10/29 10:37:17;;;;;;;15.40;8.10;;;;;;;;;;5089178;28;20095;-54
2023/10/29 10:39:43;;;;;;;13.18;7.47;;;;;;;;;;5088865;28;20438;-56
2023/10/29 10:42:09;;;;;;;17.15;8.73;;;;;;;;;;5089096;28;20039;-55
2023/10/29 10:44:36;;;;;;;14.25;8.00;;;;;;;;;;5089156;28;20105;-53
2023/10/29 10:47:03;;;;;;;14.30;7.65;;;;;;;;;;5088811;28;20155;-53
2023/10/29 10:49:32;;;;;;;13.25;7.38;;;;;;;;;;5088484;28;20119;-54
2023/10/29 10:52:01;;;;;;;14.35;7.90;;;;;;;;;;5088475;28;20355;-53
2023/10/29 10:54:27;;;;;;;16.60;8.85;;;;;;;;;;5087264;28;20024;-52
2023/10/29 10:56:53;;;;;;;15.40;8.38;;;;;;;;;;5088495;28;20039;-54
2023/10/29 10:59:20;;;;;;;14.98;8.23;;;;;;;;;;5088516;28;20024;-54
2023/10/29 11:01:46;;;;;;;15.23;8.48;;;;;;;;;;5088494;28;20142;-52
2023/10/29 11:04:12;;;;;;;14.68;7.90;;;;;;;;;;5089012;28;20036;-54
2023/10/29 11:06:39;;;;;;;15.50;7.90;;;;;;;;;;5088375;28;20068;-53
2023/10/29 11:09:06;;;;;;;15.50;7.90;;;;;;;;;;5076781;28;20070;-54
2023/10/29 11:11:38;;;;;;;14.13;7.85;;;;;;;;;;5067803;28;20460;-52
2023/10/29 11:14:30;;;;;;;14.02;8.18;;;;;;;;;;5076205;28;20498;-55
2023/10/29 11:16:59;;;;;;;13.48;7.30;;;;;;;;;;5082945;28;20176;-54
2023/10/29 11:19:25;;;;;;;;;;;;;;;;;;5088619;28;20056;-53
2023/10/29 11:22:11;;;;;;;13.60;7.18;;;;;;;;;;5087940;28;20001;-56
2023/10/29 11:24:37;;;;;;;14.40;7.65;;;;;;;;;;5085252;28;20012;-56
2023/10/29 11:27:23;;;;;;;14.93;7.93;;;;;;;;;;5086788;28;20034;-55
2023/10/29 11:29:49;;;;;;;14.32;7.65;;;;;;;;;;5086265;28;20031;-53
2023/10/29 11:32:25;;;;;;;16.75;7.68;;;;;;;;;;5086741;28;20500;-52
2023/10/29 11:35:11;;;;;;;14.02;7.60;;;;;;;;;;5086915;28;20031;-54
2023/10/29 11:37:40;;;;;;;14.32;7.90;;;;;;;;;;5086638;28;20055;-51
2023/10/29 11:40:31;;;;;;;13.25;7.50;;;;;;;;;;5087848;28;20021;-54
2023/10/29 11:42:57;;;;;;;13.85;7.50;;;;;;;;;;5087758;28;20026;-54
2023/10/29 11:45:29;;;;;;;13.48;7.75;;;;;;;;;;5087930;28;20028;-51
2023/10/29 11:48:14;;;;;;;14.07;7.95;;;;;;;;;;5088190;28;20031;-55
2023/10/29 11:50:42;;;;;;;15.43;8.00;;;;;;;;;;5087960;28;20016;-55
2023/10/29 11:53:22;;;;;;;13.63;8.23;;;;;;;;;;5087929;28;20044;-54
2023/10/29 11:55:51;;;;;;;13.85;8.15;;;;;;;;;;5088412;28;20028;-54
2023/10/29 11:58:17;;;;;;;;;;;;;;;;;;5088544;28;20107;-57
2023/10/29 12:00:43;;;;;;;14.18;8.30;;;;;;;;;;5087950;28;19950;-51
2023/10/29 12:03:09;;;;;;;13.88;7.90;;;;;;;;;;5088291;28;20568;-52
2023/10/29 12:05:36;;;;;;;13.98;7.95;;;;;;;;;;5091901;28;20024;-54
2023/10/29 12:08:03;;;;;;;13.60;7.88;;;;;;;;;;5091363;28;20129;-52
2023/10/29 12:10:29;;;;;;;14.82;8.00;;;;;;;;;;5091466;28;20031;-55
2023/10/29 12:12:55;;;;;;;16.02;8.00;;;;;;;;;;5091504;28;20036;-56
2023/10/29 12:15:23;;;;;;;14.43;8.30;;;;;;;;;;5091332;28;20047;-57
2023/10/29 12:17:49;;;;;;;15.98;8.55;;;;;;;;;;5091381;28;20020;-53
2023/10/29 12:20:22;;;;;;;15.50;8.80;;;;;;;;;;5091178;28;20703;-54
2023/10/29 12:22:52;;;;;;;16.33;8.10;;;;;;;;;;5091187;28;20108;-57
2023/10/29 12:25:21;;;;;;;16.27;8.32;;;;;;;;;;5091275;28;20116;-54
2023/10/29 12:27:47;;;;;;;;;;;;;;;;;;5091383;28;20024;-54
2023/10/29 12:30:36;;;;;;;14.70;8.48;;;;;;;;;;5090697;28;20302;-52
2023/10/29 12:33:21;;;;;;;15.15;8.70;;;;;;;;;;5073857;28;20036;-52
2023/10/29 12:35:48;;;;;;;15.00;8.63;;;;;;;;;;4726123;28;9999681;-54
2023/10/29 12:38:14;;;;;;;16.52;8.57;;;;;;;;;;5076552;28;20119;-54
2023/10/29 12:40:59;;;;;;;15.65;9.05;;;;;;;;;;5077923;28;20444;-53
2023/10/29 12:43:45;;;;;;;16.70;9.30;;;;;;;;;;5076924;28;20111;-53
2023/10/29 12:46:12;;;;;;;16.35;9.52;;;;;;;;;;5076192;28;20103;-55
2023/10/29 12:48:57;;;;;;;16.25;10.00;;;;;;;;;;5077281;28;20498;-54
2023/10/29 12:51:23;;;;;;;14.93;9.32;;;;;;;;;;5077725;28;20035;-53
2023/10/29 12:53:49;;;;;;;14.65;8.82;;;;;;;;;;5079699;28;20051;-53
2023/10/29 12:56:15;;;;;;;17.55;8.95;;;;;;;;;;5087968;28;20093;-54
2023/10/29 12:58:41;;;;;;;15.10;8.90;;;;;;;;;;5086285;28;20027;-54
2023/10/29 13:01:07;;;;;;;14.57;8.80;;;;;;;;;;5087496;28;20097;-52
2023/10/29 13:03:33;;;;;;;16.60;8.70;;;;;;;;;;5087824;28;20024;-50
2023/10/29 13:05:59;;;;;;;15.10;9.10;;;;;;;;;;5087086;28;20138;-53
2023/10/29 13:08:25;;;;;;;17.88;8.95;;;;;;;;;;5082941;28;20013;-52
2023/10/29 13:10:52;;;;;;;14.65;8.23;;;;;;;;;;5078564;28;20093;-51
2023/10/29 13:13:18;;;;;;;15.77;8.45;;;;;;;;;;5069902;28;20078;-54
2023/10/29 13:15:45;;;;;;;14.65;8.52;;;;;;;;;;5068896;28;20036;-53
2023/10/29 13:18:11;;;;;;;18.35;8.88;;;;;;;;;;5069968;28;20059;-51
2023/10/29 13:20:37;;;;;;;15.10;8.70;;;;;;;;;;5082618;28;20573;-54
2023/10/29 13:23:03;;;;;;;14.35;8.15;;;;;;;;;;5087304;28;20405;-55
2023/10/29 13:25:29;;;;;;;16.42;9.20;;;;;;;;;;5086987;28;20493;-54
2023/10/29 13:27:55;;;;;;;14.63;8.18;;;;;;;;;;5087142;28;20024;-52
2023/10/29 13:30:21;;;;;;;14.20;8.43;;;;;;;;;;5085664;28;20061;-53
2023/10/29 13:32:47;;;;;;;14.45;8.25;;;;;;;;;;5086929;28;20566;-54
2023/10/29 13:35:16;;;;;;;14.80;8.35;;;;;;;;;;5079745;28;20032;-54
2023/10/29 13:37:43;;;;;;;14.25;8.05;;;;;;;;;;5086674;28;20031;-56
2023/10/29 13:40:09;;;;;;;14.57;8.40;;;;;;;;;;5086702;28;20028;-54
2023/10/29 13:42:35;;;;;;;14.07;8.30;;;;;;;;;;5085320;28;20130;-53
2023/10/29 13:45:01;;;;;;;14.25;8.38;;;;;;;;;;5086480;28;20050;-55
2023/10/29 13:47:27;;;;;;;14.23;8.60;;;;;;;;;;5086285;28;20533;-53
2023/10/29 13:49:53;;;;;;;14.20;8.27;;;;;;;;;;5086512;28;20040;-54
2023/10/29 13:52:19;;;;;;;16.42;8.43;;;;;;;;;;5086380;28;20052;-55
2023/10/29 13:54:45;;;;;;;17.33;8.60;;;;;;;;;;5082031;28;20115;-54
2023/10/29 13:57:11;;;;;;;13.48;7.97;;;;;;;;;;5083748;28;20852;-55
2023/10/29 13:59:37;;;;;;;15.27;8.60;;;;;;;;;;5086353;28;20095;-54
2023/10/29 14:02:03;;;;;;;15.57;8.50;;;;;;;;;;5072602;28;20215;-53
2023/10/29 14:04:29;;;;;;;14.25;8.63;;;;;;;;;;5072411;28;20489;-58
2023/10/29 14:06:55;;;;;;;14.55;8.50;;;;;;;;;;5076992;28;20036;-54
2023/10/29 14:09:24;;;;;;;14.40;7.90;;;;;;;;;;5076757;28;20055;-54
2023/10/29 14:11:50;;;;;;;13.65;8.18;;;;;;;;;;5073516;28;20247;-52
2023/10/29 14:14:16;;;;;;;13.40;7.70;;;;;;;;;;5075094;28;20027;-56
2023/10/29 14:16:42;;;;;;;17.05;8.43;;;;;;;;;;5073973;28;20036;-57
2023/10/29 14:19:09;;;;;;;14.57;7.70;;;;;;;;;;5066004;28;20119;-56
2023/10/29 14:21:35;;;;;;;13.05;7.55;;;;;;;;;;5066252;28;20024;-56
2023/10/29 14:24:08;;;;;;;14.18;7.40;;;;;;;;;;5066633;28;20029;-55
2023/10/29 14:26:34;;;;;;;13.13;7.30;;;;;;;;;;5065959;28;20052;-54